Terminal Aerodrome Forecast
Issued by NWS

Home | Current Version | Previous Version | Text Only | Print | Product List | Glossary On
Versions: 1 2 3 4 5 6 7 8 9 10 11 12 13 14 15 16
000
FTUS42 KFFC 240527
TAFFTY
TAF
KFTY 240527Z 2406/2506 30012KT P6SM SCT250
     FM241500 30010G20KT P6SM SCT250
     FM242300 31007KT P6SM SKC=

USA.gov is the U.S. government's official web portal to all federal, state and local government web resources and services.